createdAt,value
2023-01-11T00:00:43.461Z,5.11
2023-01-11T00:01:43.483Z,5.11
2023-01-11T00:02:43.439Z,5.12
2023-01-11T00:03:43.414Z,5.12
2023-01-11T00:04:43.389Z,5.12
2023-01-11T00:05:43.421Z,5.12
2023-01-11T00:06:43.350Z,5.09
2023-01-11T00:07:43.355Z,5.08
2023-01-11T00:08:43.313Z,5.08
2023-01-11T00:09:43.366Z,5.09
2023-01-11T00:10:43.412Z,5.08
2023-01-11T00:11:43.376Z,5.09
2023-01-11T00:12:43.449Z,5.11
2023-01-11T00:13:43.310Z,5.11
2023-01-11T00:14:43.264Z,5.11
2023-01-11T00:15:43.449Z,5.09
2023-01-11T00:16:43.295Z,5.11
2023-01-11T00:17:43.198Z,5.11
2023-01-11T00:18:43.193Z,5.14
2023-01-11T00:19:43.162Z,5.15
2023-01-11T00:20:43.193Z,5.15
2023-01-11T00:21:43.152Z,5.15
2023-01-11T00:22:43.445Z,5.12
2023-01-11T00:23:43.129Z,5.15
2023-01-11T00:24:43.272Z,5.15
2023-01-11T00:25:43.236Z,5.14
2023-01-11T00:26:43.118Z,5.14
2023-01-11T00:27:43.244Z,5.19
2023-01-11T00:28:43.228Z,5.15
2023-01-11T00:29:43.075Z,5.17
2023-01-11T00:30:43.066Z,5.19
2023-01-11T00:31:43.017Z,5.19
2023-01-11T00:32:43.194Z,5.19
2023-01-11T00:33:42.992Z,5.19
2023-01-11T00:34:43.092Z,5.15
2023-01-11T00:35:42.958Z,5.14
2023-01-11T00:36:42.974Z,5.15
2023-01-11T00:37:43.019Z,5.14
2023-01-11T00:38:43.011Z,5.12
2023-01-11T00:39:43.031Z,5.12
2023-01-11T00:40:42.923Z,5.11
2023-01-11T00:41:43.074Z,5.12
2023-01-11T00:42:42.910Z,5.17
2023-01-11T00:43:42.887Z,5.14
2023-01-11T00:44:42.868Z,5.14
2023-01-11T00:45:42.846Z,5.15
2023-01-11T00:46:42.894Z,5.12
2023-01-11T00:47:42.934Z,5.14
2023-01-11T00:48:42.825Z,5.14
2023-01-11T00:49:42.792Z,5.15
2023-01-11T00:50:42.824Z,5.15
2023-01-11T00:51:42.777Z,5.11
2023-01-11T00:52:42.771Z,5.11
2023-01-11T00:53:42.744Z,5.11
2023-01-11T00:54:42.752Z,5.12
2023-01-11T00:55:42.746Z,5.11
2023-01-11T00:56:42.731Z,5.12
2023-01-11T00:57:42.695Z,5.12
2023-01-11T00:58:42.697Z,5.09
2023-01-11T00:59:42.662Z,5.11
2023-01-11T01:00:42.680Z,5.11
2023-01-11T01:01:42.752Z,5.12
2023-01-11T01:02:42.662Z,5.11
2023-01-11T01:03:42.796Z,5.11
2023-01-11T01:04:42.612Z,5.09
2023-01-11T01:05:42.590Z,5.09
2023-01-11T01:06:42.622Z,5.09
2023-01-11T01:07:42.591Z,5.09
2023-01-11T01:08:42.561Z,5.08
2023-01-11T01:09:42.561Z,5.08
2023-01-11T01:10:42.529Z,5.08
2023-01-11T01:11:42.548Z,5.08
2023-01-11T01:12:42.532Z,5.05
2023-01-11T01:13:42.497Z,5.08
2023-01-11T01:14:42.475Z,5.06
2023-01-11T01:15:42.476Z,5.05
2023-01-11T01:16:42.456Z,5.06
2023-01-11T01:17:42.472Z,5.11
2023-01-11T01:18:42.428Z,5.08
2023-01-11T01:19:42.438Z,5.08
2023-01-11T01:20:42.399Z,5.08
2023-01-11T01:21:42.397Z,5.06
2023-01-11T01:22:42.383Z,5.05
2023-01-11T01:23:42.377Z,5.08
2023-01-11T01:24:42.353Z,5.08
2023-01-11T01:25:42.414Z,5.08
2023-01-11T01:26:42.343Z,5.06
2023-01-11T01:27:42.325Z,5.06
2023-01-11T01:28:42.306Z,5.06
2023-01-11T01:29:42.300Z,5.06
2023-01-11T01:30:42.272Z,5.06
2023-01-11T01:31:42.271Z,5.08
2023-01-11T01:32:42.257Z,5.11
2023-01-11T01:33:42.259Z,5.09
2023-01-11T01:34:42.216Z,5.11
2023-01-11T01:35:42.215Z,5.12
2023-01-11T01:36:42.331Z,5.12
2023-01-11T01:37:42.210Z,5.14
2023-01-11T01:38:42.174Z,5.14
2023-01-11T01:39:42.173Z,5.12
2023-01-11T01:40:42.140Z,5.15
2023-01-11T01:41:42.150Z,5.15
2023-01-11T01:42:42.131Z,5.17
2023-01-11T01:43:42.153Z,5.17
2023-01-11T01:44:42.120Z,5.15
2023-01-11T01:45:42.092Z,5.19
2023-01-11T01:46:42.088Z,5.20
2023-01-11T01:47:42.090Z,5.22
2023-01-11T01:48:42.154Z,5.22
2023-01-11T01:49:42.052Z,5.26
2023-01-11T01:50:42.074Z,5.26
2023-01-11T01:51:42.035Z,5.27
2023-01-11T01:52:42.040Z,5.30
2023-01-11T01:53:42.027Z,5.33
2023-01-11T01:54:42.003Z,5.35
2023-01-11T01:55:41.970Z,5.35
2023-01-11T01:56:42.066Z,5.37
2023-01-11T01:57:42.008Z,5.40
2023-01-11T01:58:42.938Z,5.41
2023-01-11T01:59:41.987Z,5.42
2023-01-11T02:00:41.994Z,5.41
2023-01-11T02:01:41.985Z,5.41
2023-01-11T02:02:41.893Z,5.40
2023-01-11T02:03:41.880Z,5.40
2023-01-11T02:04:41.849Z,5.41
2023-01-11T02:05:42.043Z,5.42
2023-01-11T02:06:41.930Z,5.44
2023-01-11T02:07:41.864Z,5.42
2023-01-11T02:08:41.931Z,5.47
2023-01-11T02:09:41.824Z,5.45
2023-01-11T02:10:41.786Z,5.48
2023-01-11T02:11:41.843Z,5.49
2023-01-11T02:12:42.518Z,5.51
2023-01-11T02:13:42.002Z,5.49
2023-01-11T02:14:41.865Z,5.55
2023-01-11T02:15:41.784Z,5.55
2023-01-11T02:16:41.911Z,5.55
2023-01-11T02:17:41.789Z,5.55
2023-01-11T02:18:41.673Z,5.58
2023-01-11T02:19:41.835Z,5.58
2023-01-11T02:20:41.778Z,5.60
2023-01-11T02:21:41.642Z,5.63
2023-01-11T02:22:41.769Z,5.65
2023-01-11T02:23:41.624Z,5.63
2023-01-11T02:24:41.638Z,5.65
2023-01-11T02:25:41.640Z,5.63
2023-01-11T02:26:41.600Z,5.65
2023-01-11T02:27:41.818Z,5.67
2023-01-11T02:28:41.649Z,5.70
2023-01-11T02:29:41.571Z,5.70
2023-01-11T02:30:41.588Z,5.69
2023-01-11T02:31:41.553Z,5.67
2023-01-11T02:32:41.612Z,5.67
2023-01-11T02:33:41.487Z,5.73
2023-01-11T02:34:41.519Z,5.73
2023-01-11T02:35:41.467Z,5.73
2023-01-11T02:36:41.446Z,5.74
2023-01-11T02:37:41.453Z,5.75
2023-01-11T02:38:41.414Z,5.77
2023-01-11T02:39:41.437Z,5.77
2023-01-11T02:40:41.398Z,5.75
2023-01-11T02:41:41.429Z,5.77
2023-01-11T02:42:41.402Z,5.75
2023-01-11T02:43:41.373Z,5.75
2023-01-11T02:44:41.348Z,5.75
2023-01-11T02:45:41.351Z,5.75
2023-01-11T02:46:41.366Z,5.74
2023-01-11T02:47:41.336Z,5.75
2023-01-11T02:48:41.316Z,5.74
2023-01-11T02:49:41.289Z,5.73
2023-01-11T02:50:41.271Z,5.73
2023-01-11T02:51:41.283Z,5.74
2023-01-11T02:52:41.255Z,5.73
2023-01-11T02:53:41.243Z,5.70
2023-01-11T02:54:41.230Z,5.70
2023-01-11T02:55:41.211Z,5.69
2023-01-11T02:56:41.206Z,5.69
2023-01-11T02:57:41.194Z,5.69
2023-01-11T02:58:41.184Z,5.70
2023-01-11T02:59:41.199Z,5.73
2023-01-11T03:00:41.171Z,5.70
2023-01-11T03:01:41.188Z,5.73
2023-01-11T03:02:41.149Z,5.75
2023-01-11T03:03:41.156Z,5.75
2023-01-11T03:04:41.107Z,5.75
2023-01-11T03:05:41.108Z,5.77
2023-01-11T03:06:41.098Z,5.77
2023-01-11T03:07:41.093Z,5.78
2023-01-11T03:08:41.058Z,5.78
2023-01-11T03:09:41.047Z,5.78
2023-01-11T03:10:41.044Z,5.80
2023-01-11T03:11:41.033Z,5.81
2023-01-11T03:12:41.002Z,5.83
2023-01-11T03:13:41.015Z,5.81
2023-01-11T03:14:41.058Z,5.83
2023-01-11T03:15:41.001Z,5.83
2023-01-11T03:16:40.967Z,5.83
2023-01-11T03:17:40.961Z,5.85
2023-01-11T03:18:40.943Z,5.84
2023-01-11T03:19:40.929Z,5.85
2023-01-11T03:20:40.965Z,5.84
2023-01-11T03:21:40.910Z,5.85
2023-01-11T03:22:40.906Z,5.83
2023-01-11T03:23:40.972Z,5.83
2023-01-11T03:24:40.864Z,5.81
2023-01-11T03:25:40.901Z,5.80
2023-01-11T03:26:40.840Z,5.81
2023-01-11T03:27:40.844Z,5.84
2023-01-11T03:28:40.813Z,5.81
2023-01-11T03:29:40.815Z,5.80
2023-01-11T03:30:40.785Z,5.78
2023-01-11T03:31:40.860Z,5.80
2023-01-11T03:32:40.768Z,5.78
2023-01-11T03:33:40.773Z,5.78
2023-01-11T03:34:40.749Z,5.77
2023-01-11T03:35:40.754Z,5.80
2023-01-11T03:36:40.717Z,5.81
2023-01-11T03:37:40.720Z,5.80
2023-01-11T03:38:40.708Z,5.83
2023-01-11T03:39:40.691Z,5.83
2023-01-11T03:40:40.672Z,5.81
2023-01-11T03:41:40.657Z,5.83
2023-01-11T03:42:50.389Z,5.81
2023-01-11T03:43:41.350Z,5.81
2023-01-11T03:44:43.307Z,5.81
2023-01-11T03:45:40.615Z,5.80
2023-01-11T03:46:40.630Z,5.78
2023-01-11T03:47:40.647Z,5.81
2023-01-11T03:48:40.594Z,5.81
2023-01-11T03:49:40.566Z,5.81
2023-01-11T03:50:40.551Z,5.81
2023-01-11T03:51:40.560Z,5.81
2023-01-11T03:52:40.534Z,5.81
2023-01-11T03:53:40.524Z,5.81
2023-01-11T03:54:40.496Z,5.83
2023-01-11T03:55:40.492Z,5.83
2023-01-11T03:56:40.467Z,5.84
2023-01-11T03:57:40.478Z,5.85
2023-01-11T03:58:40.471Z,5.85
2023-01-11T03:59:40.515Z,5.87
2023-01-11T04:00:40.466Z,5.87
2023-01-11T04:01:40.418Z,5.88
2023-01-11T04:02:40.412Z,5.88
2023-01-11T04:03:40.417Z,5.88
2023-01-11T04:04:40.422Z,5.87
2023-01-11T04:05:40.366Z,5.87
2023-01-11T04:06:40.387Z,5.88
2023-01-11T04:07:40.348Z,5.88
2023-01-11T04:08:40.327Z,5.87
2023-01-11T04:09:40.317Z,5.85
2023-01-11T04:10:40.311Z,5.85
2023-01-11T04:11:40.339Z,5.88
2023-01-11T04:12:40.300Z,5.87
2023-01-11T04:13:40.292Z,5.87
2023-01-11T04:14:40.250Z,5.87
2023-01-11T04:15:40.255Z,5.90
2023-01-11T04:16:40.289Z,5.93
2023-01-11T04:17:40.239Z,5.90
2023-01-11T04:18:40.228Z,5.92
2023-01-11T04:19:40.205Z,5.92
2023-01-11T04:20:40.211Z,5.92
2023-01-11T04:21:40.202Z,5.95
2023-01-11T04:22:40.162Z,5.95
2023-01-11T04:23:40.194Z,5.95
2023-01-11T04:24:40.137Z,5.95
2023-01-11T04:25:40.135Z,5.98
2023-01-11T04:26:40.131Z,5.96
2023-01-11T04:27:40.118Z,5.98
2023-01-11T04:28:40.739Z,5.96
2023-01-11T04:29:40.118Z,5.98
2023-01-11T04:30:40.216Z,6.01
2023-01-11T04:31:40.141Z,5.98
2023-01-11T04:32:40.035Z,5.96
2023-01-11T04:33:40.045Z,5.99
2023-01-11T04:34:40.153Z,5.99
2023-01-11T04:35:40.006Z,6.02
2023-01-11T04:36:39.977Z,6.01
2023-01-11T04:37:39.964Z,5.99
2023-01-11T04:38:39.973Z,6.01
2023-01-11T04:39:39.969Z,5.99
2023-01-11T04:40:39.941Z,6.01
2023-01-11T04:41:39.970Z,6.01
2023-01-11T04:42:39.916Z,6.02
2023-01-11T04:43:39.912Z,6.02
2023-01-11T04:44:39.886Z,6.01
2023-01-11T04:45:39.909Z,6.05
2023-01-11T04:46:39.861Z,6.03
2023-01-11T04:47:39.851Z,6.03
2023-01-11T04:48:39.863Z,6.03
2023-01-11T04:49:39.828Z,6.02
2023-01-11T04:50:39.849Z,6.03
2023-01-11T04:51:39.846Z,6.02
2023-01-11T04:52:39.873Z,6.01
2023-01-11T04:53:39.798Z,5.99
2023-01-11T04:54:39.772Z,5.99
2023-01-11T04:55:39.773Z,5.98
2023-01-11T04:56:39.729Z,5.98
2023-01-11T04:57:39.730Z,5.96
2023-01-11T04:58:39.735Z,5.98
2023-01-11T04:59:39.711Z,5.98
2023-01-11T05:00:39.687Z,5.98
2023-01-11T05:01:39.700Z,5.99
2023-01-11T05:02:39.657Z,6.01
2023-01-11T05:03:39.857Z,6.02
2023-01-11T05:04:39.651Z,6.02
2023-01-11T05:05:39.627Z,6.05
2023-01-11T05:06:39.633Z,6.06
2023-01-11T05:07:39.622Z,6.08
2023-01-11T05:08:39.589Z,6.05
2023-01-11T05:09:39.578Z,6.05
2023-01-11T05:10:39.565Z,6.03
2023-01-11T05:11:39.558Z,6.03
2023-01-11T05:12:39.538Z,6.05
2023-01-11T05:13:39.549Z,6.01
2023-01-11T05:14:39.547Z,6.01
2023-01-11T05:15:39.500Z,6.01
2023-01-11T05:16:39.561Z,6.02
2023-01-11T05:17:39.492Z,6.03
2023-01-11T05:18:39.471Z,6.02
2023-01-11T05:19:39.463Z,6.01
2023-01-11T05:20:39.483Z,6.02
2023-01-11T05:21:39.421Z,5.99
2023-01-11T05:22:39.414Z,5.99
2023-01-11T05:23:39.395Z,5.98
2023-01-11T05:24:39.391Z,5.99
2023-01-11T05:25:39.366Z,5.99
2023-01-11T05:26:39.394Z,6.05
2023-01-11T05:27:39.412Z,6.06
2023-01-11T05:28:39.359Z,6.11
2023-01-11T05:29:39.355Z,6.11
2023-01-11T05:30:39.357Z,6.13
2023-01-11T05:31:39.683Z,6.11
2023-01-11T05:32:39.326Z,6.08
2023-01-11T05:33:39.506Z,6.05
2023-01-11T05:34:39.355Z,6.05
2023-01-11T05:35:39.250Z,6.03
2023-01-11T05:36:39.332Z,6.03
2023-01-11T05:37:39.304Z,6.02
2023-01-11T05:38:39.232Z,6.03
2023-01-11T05:39:39.238Z,6.05
2023-01-11T05:40:39.273Z,6.03
2023-01-11T05:41:39.193Z,6.08
2023-01-11T05:42:39.165Z,6.08
2023-01-11T05:43:39.168Z,6.10
2023-01-11T05:44:39.170Z,6.08
2023-01-11T05:45:39.163Z,6.08
2023-01-11T05:46:39.114Z,6.10
2023-01-11T05:47:39.105Z,6.11
2023-01-11T05:48:39.117Z,6.10
2023-01-11T05:49:39.080Z,6.10
2023-01-11T05:50:39.104Z,6.11
2023-01-11T05:51:39.037Z,6.10
2023-01-11T05:52:39.028Z,6.10
2023-01-11T05:53:39.033Z,6.08
2023-01-11T05:54:39.080Z,6.11
2023-01-11T05:55:38.987Z,6.13
2023-01-11T05:56:38.985Z,6.13
2023-01-11T05:57:38.948Z,6.14
2023-01-11T05:58:38.986Z,6.16
2023-01-11T05:59:38.932Z,6.16
2023-01-11T06:00:38.952Z,6.14
2023-01-11T06:01:38.912Z,6.13
2023-01-11T06:02:39.028Z,6.13
2023-01-11T06:03:38.887Z,6.13
2023-01-11T06:04:38.913Z,6.14
2023-01-11T06:05:38.859Z,6.14
2023-01-11T06:06:38.898Z,6.13
2023-01-11T06:07:38.839Z,6.11
2023-01-11T06:08:39.434Z,6.14
2023-01-11T06:09:38.818Z,6.13
2023-01-11T06:10:38.839Z,6.11
2023-01-11T06:11:38.799Z,6.11
2023-01-11T06:12:38.849Z,6.11
2023-01-11T06:13:38.955Z,6.11
2023-01-11T06:14:38.881Z,6.11
2023-01-11T06:15:38.745Z,6.10
2023-01-11T06:16:38.964Z,6.13
2023-01-11T06:17:38.713Z,6.13
2023-01-11T06:18:38.735Z,6.16
2023-01-11T06:19:38.857Z,6.14
2023-01-11T06:20:38.849Z,6.14
2023-01-11T06:21:38.661Z,6.16
2023-01-11T06:22:38.648Z,6.16
2023-01-11T06:23:38.636Z,6.16
2023-01-11T06:24:38.679Z,6.19
2023-01-11T06:25:38.643Z,6.19
2023-01-11T06:26:38.617Z,6.19
2023-01-11T06:27:38.658Z,6.21
2023-01-11T06:28:38.599Z,6.24
2023-01-11T06:29:38.568Z,6.25
2023-01-11T06:30:38.598Z,6.28
2023-01-11T06:31:38.535Z,6.32
2023-01-11T06:32:38.532Z,6.30
2023-01-11T06:33:38.525Z,6.38
2023-01-11T06:34:38.581Z,6.40
2023-01-11T06:35:38.477Z,6.43
2023-01-11T06:36:38.494Z,6.43
2023-01-11T06:37:38.483Z,6.43
2023-01-11T06:38:38.492Z,6.42
2023-01-11T06:39:38.478Z,6.48
2023-01-11T06:40:38.432Z,6.51
2023-01-11T06:41:38.410Z,6.48
2023-01-11T06:42:38.419Z,6.48
2023-01-11T06:43:38.393Z,6.46
2023-01-11T06:44:38.393Z,6.45
2023-01-11T06:45:38.383Z,6.45
2023-01-11T06:46:38.427Z,6.46
2023-01-11T06:47:38.341Z,6.43
2023-01-11T06:48:38.330Z,6.43
2023-01-11T06:49:38.685Z,6.45
2023-01-11T06:50:38.731Z,6.43
2023-01-11T06:51:38.330Z,6.45
2023-01-11T06:52:38.277Z,6.45
2023-01-11T06:53:38.457Z,6.48
2023-01-11T06:54:38.259Z,6.51
2023-01-11T06:55:38.227Z,6.60
2023-01-11T06:56:38.275Z,6.61
2023-01-11T06:57:38.196Z,6.79
2023-01-11T06:58:38.206Z,6.94
2023-01-11T06:59:38.188Z,6.99
2023-01-11T07:00:38.196Z,7.01
2023-01-11T07:01:38.210Z,6.97
2023-01-11T07:02:38.158Z,6.86
2023-01-11T07:03:38.138Z,6.76
2023-01-11T07:04:38.153Z,6.69
2023-01-11T07:05:38.102Z,6.65
2023-01-11T07:06:38.104Z,6.58
2023-01-11T07:07:38.081Z,6.61
2023-01-11T07:08:38.151Z,6.61
2023-01-11T07:09:38.063Z,6.68
2023-01-11T07:10:38.062Z,6.65
2023-01-11T07:11:38.036Z,6.63
2023-01-11T07:12:38.343Z,6.64
2023-01-11T07:13:38.047Z,6.68
2023-01-11T07:14:38.048Z,6.64
2023-01-11T07:15:38.037Z,6.57
2023-01-11T07:16:37.987Z,6.68
2023-01-11T07:17:38.003Z,6.75
2023-01-11T07:18:37.991Z,6.72
2023-01-11T07:19:37.976Z,6.64
2023-01-11T07:20:37.948Z,6.58
2023-01-11T07:21:37.972Z,6.55
2023-01-11T07:22:37.949Z,6.53
2023-01-11T07:23:38.068Z,6.57
2023-01-11T07:24:37.885Z,6.60
2023-01-11T07:25:37.875Z,6.55
2023-01-11T07:26:37.893Z,6.51
2023-01-11T07:27:37.828Z,6.46
2023-01-11T07:28:37.855Z,6.43
2023-01-11T07:29:37.807Z,6.42
2023-01-11T07:30:55.499Z,6.39
2023-01-11T07:31:38.809Z,6.36
2023-01-11T07:32:37.813Z,6.35
2023-01-11T07:33:37.747Z,6.35
2023-01-11T07:34:37.766Z,6.32
2023-01-11T07:35:37.711Z,6.33
2023-01-11T07:36:37.728Z,6.33
2023-01-11T07:37:37.713Z,6.33
2023-01-11T07:38:37.758Z,6.33
2023-01-11T07:39:43.390Z,6.32
2023-01-11T07:40:38.658Z,6.33
2023-01-11T07:41:39.181Z,6.33
2023-01-11T07:42:37.672Z,6.33
2023-01-11T07:43:37.651Z,6.36
2023-01-11T07:44:37.621Z,6.36
2023-01-11T07:45:45.268Z,6.36
2023-01-11T07:46:38.705Z,6.38
2023-01-11T07:47:37.577Z,6.38
2023-01-11T07:48:37.578Z,6.42
2023-01-11T07:49:37.550Z,6.43
2023-01-11T07:50:37.590Z,6.45
2023-01-11T07:51:37.555Z,6.48
2023-01-11T07:52:37.568Z,6.48
2023-01-11T07:53:37.569Z,6.46
2023-01-11T07:54:37.733Z,6.46
2023-01-11T07:55:37.505Z,6.50
2023-01-11T07:56:37.847Z,6.53
2023-01-11T07:57:37.485Z,6.53
2023-01-11T07:58:37.562Z,6.55
2023-01-11T07:59:37.417Z,6.57
2023-01-11T08:00:37.428Z,6.57
2023-01-11T08:01:37.417Z,6.55
2023-01-11T08:02:37.606Z,6.58
2023-01-11T08:03:37.783Z,6.60
2023-01-11T08:04:37.488Z,6.60
2023-01-11T08:05:37.385Z,6.61
2023-01-11T08:06:37.355Z,6.63
2023-01-11T08:07:37.443Z,6.64
2023-01-11T08:08:37.437Z,6.65
2023-01-11T08:09:37.550Z,6.68
2023-01-11T08:10:37.400Z,6.69
2023-01-11T08:11:37.301Z,6.71
2023-01-11T08:12:37.266Z,6.71
2023-01-11T08:13:37.355Z,6.72
2023-01-11T08:14:37.234Z,6.72
2023-01-11T08:15:37.259Z,6.73
2023-01-11T08:16:37.222Z,6.75
2023-01-11T08:17:37.551Z,6.73
2023-01-11T08:18:37.261Z,6.76
2023-01-11T08:19:37.173Z,6.76
2023-01-11T08:20:37.492Z,6.78
2023-01-11T08:21:37.155Z,6.78
2023-01-11T08:22:37.319Z,6.79
2023-01-11T08:23:37.137Z,6.81
2023-01-11T08:24:37.153Z,6.79
2023-01-11T08:25:37.110Z,6.79
2023-01-11T08:26:37.165Z,6.79
2023-01-11T08:27:37.389Z,6.79
2023-01-11T08:28:37.080Z,6.81
2023-01-11T08:29:37.089Z,6.82
2023-01-11T08:30:37.072Z,6.82
2023-01-11T08:31:37.041Z,6.83
2023-01-11T08:32:37.002Z,6.89
2023-01-11T08:33:37.152Z,6.90
2023-01-11T08:34:36.996Z,6.91
2023-01-11T08:35:37.017Z,6.93
2023-01-11T08:36:37.055Z,6.91
2023-01-11T08:37:37.033Z,6.91
2023-01-11T08:38:37.079Z,6.91
2023-01-11T08:39:36.958Z,6.94
2023-01-11T08:40:36.927Z,6.96
2023-01-11T08:41:36.890Z,6.97
2023-01-11T08:42:36.891Z,6.99
2023-01-11T08:43:36.867Z,6.99
2023-01-11T08:44:36.967Z,7.01
2023-01-11T08:45:36.879Z,7.04
2023-01-11T08:46:36.985Z,7.05
2023-01-11T08:47:36.812Z,7.07
2023-01-11T08:48:36.804Z,7.11
2023-01-11T08:49:36.849Z,7.12
2023-01-11T08:50:36.849Z,7.15
2023-01-11T08:51:36.916Z,7.16
2023-01-11T08:52:36.756Z,7.18
2023-01-11T08:53:36.731Z,7.19
2023-01-11T08:54:36.746Z,7.23
2023-01-11T08:55:36.716Z,7.24
2023-01-11T08:56:36.685Z,7.23
2023-01-11T08:57:36.709Z,7.26
2023-01-11T08:58:36.729Z,7.27
2023-01-11T08:59:37.330Z,7.27
2023-01-11T09:00:36.640Z,7.29
2023-01-11T09:01:36.681Z,7.32
2023-01-11T09:02:37.335Z,7.33
2023-01-11T09:03:36.682Z,7.33
2023-01-11T09:04:36.603Z,7.36
2023-01-11T09:05:36.576Z,7.37
2023-01-11T09:06:36.571Z,7.41
2023-01-11T09:07:36.637Z,7.42
2023-01-11T09:08:36.543Z,7.42
2023-01-11T09:09:36.545Z,7.42
2023-01-11T09:10:37.768Z,7.44
2023-01-11T09:11:36.535Z,7.44
2023-01-11T09:12:36.635Z,7.47
2023-01-11T09:13:36.652Z,7.48
2023-01-11T09:14:36.557Z,7.48
2023-01-11T09:15:36.618Z,7.52
2023-01-11T09:16:36.595Z,7.52
2023-01-11T09:17:36.599Z,7.52
2023-01-11T09:18:36.432Z,7.51
2023-01-11T09:19:36.448Z,7.54
2023-01-11T09:20:36.612Z,7.52
2023-01-11T09:21:36.418Z,7.55
2023-01-11T09:22:37.279Z,7.52
2023-01-11T09:23:36.360Z,7.55
2023-01-11T09:24:36.365Z,7.55
2023-01-11T09:25:36.319Z,7.51
2023-01-11T09:26:36.339Z,7.48
2023-01-11T09:27:36.412Z,7.44
2023-01-11T09:28:36.322Z,7.41
2023-01-11T09:29:37.560Z,7.36
2023-01-11T09:30:36.380Z,7.30
2023-01-11T09:31:36.273Z,7.27
2023-01-11T09:32:36.326Z,7.24
2023-01-11T09:33:36.388Z,7.19
2023-01-11T09:34:36.263Z,7.16
2023-01-11T09:35:36.193Z,7.14
2023-01-11T09:36:36.250Z,7.08
2023-01-11T09:37:36.187Z,7.07
2023-01-11T09:38:36.164Z,7.05
2023-01-11T09:39:36.193Z,7.01
2023-01-11T09:40:36.129Z,7.00
2023-01-11T09:41:36.148Z,6.99
2023-01-11T09:42:36.104Z,6.96
2023-01-11T09:43:36.123Z,6.94
2023-01-11T09:44:36.090Z,6.94
2023-01-11T09:45:36.166Z,6.91
2023-01-11T09:46:36.355Z,6.93
2023-01-11T09:47:36.113Z,6.91
2023-01-11T09:48:36.071Z,6.89
2023-01-11T09:49:36.087Z,6.89
2023-01-11T09:50:36.035Z,6.87
2023-01-11T09:51:36.010Z,6.87
2023-01-11T09:52:35.991Z,6.90
2023-01-11T09:53:36.059Z,6.90
2023-01-11T09:54:35.979Z,6.89
2023-01-11T09:55:36.018Z,6.87
2023-01-11T09:56:35.923Z,6.87
2023-01-11T09:57:35.946Z,6.89
2023-01-11T09:58:35.971Z,6.87
2023-01-11T09:59:35.961Z,6.83
2023-01-11T10:00:35.901Z,6.89
2023-01-11T10:01:35.944Z,6.87
2023-01-11T10:02:35.908Z,6.90
2023-01-11T10:03:35.897Z,6.87
2023-01-11T10:04:35.940Z,6.87
2023-01-11T10:05:35.841Z,6.87
2023-01-11T10:06:35.805Z,6.86
2023-01-11T10:07:35.816Z,6.87
2023-01-11T10:18:25.904Z,6.93
2023-01-11T10:18:28.851Z,6.91
2023-01-11T10:18:29.963Z,6.91
2023-01-11T10:18:31.859Z,6.90
2023-01-11T10:19:03.701Z,6.94
2023-01-11T10:19:40.825Z,6.94
2023-01-11T10:20:35.730Z,6.96
2023-01-11T10:21:35.616Z,6.97
2023-01-11T10:22:35.596Z,6.97
2023-01-11T10:23:35.619Z,7.00
2023-01-11T10:24:35.626Z,7.01
2023-01-11T10:25:35.670Z,7.04
2023-01-11T10:26:35.590Z,7.05
2023-01-11T10:27:35.646Z,7.08
2023-01-11T10:28:35.541Z,7.08
2023-01-11T10:29:35.531Z,7.07
2023-01-11T10:30:35.491Z,7.07
2023-01-11T10:31:35.637Z,7.07
2023-01-11T10:32:35.465Z,7.07
2023-01-11T10:33:35.623Z,7.08
2023-01-11T10:34:35.624Z,7.11
2023-01-11T10:35:35.442Z,7.09
2023-01-11T10:36:35.482Z,7.12
2023-01-11T10:37:35.424Z,7.11
2023-01-11T10:38:35.380Z,7.11
2023-01-11T10:39:35.397Z,7.14
2023-01-11T10:40:35.439Z,7.14
2023-01-11T10:41:35.383Z,7.11
2023-01-11T10:42:35.327Z,7.14
2023-01-11T10:43:35.384Z,7.15
2023-01-11T10:44:35.346Z,7.18
2023-01-11T10:45:35.520Z,7.19
2023-01-11T10:46:35.290Z,7.19
2023-01-11T10:47:35.303Z,7.21
2023-01-11T10:48:35.269Z,7.23
2023-01-11T10:49:36.042Z,7.24
2023-01-11T10:50:35.312Z,7.24
2023-01-11T10:51:35.235Z,7.23
2023-01-11T10:52:35.343Z,7.23
2023-01-11T10:53:35.218Z,7.26
2023-01-11T10:54:35.277Z,7.26
2023-01-11T10:55:35.179Z,7.27
2023-01-11T10:56:35.159Z,7.26
2023-01-11T10:57:36.185Z,7.27
2023-01-11T10:58:35.393Z,7.27
2023-01-11T10:59:35.160Z,7.30
2023-01-11T11:00:35.288Z,7.29
2023-01-11T11:01:35.098Z,7.29
2023-01-11T11:02:35.121Z,7.26
2023-01-11T11:03:35.075Z,7.27
2023-01-11T11:04:35.086Z,7.29
2023-01-11T11:05:35.067Z,7.29
2023-01-11T11:06:35.037Z,7.29
2023-01-11T11:07:35.013Z,7.30
2023-01-11T11:08:35.027Z,7.32
2023-01-11T11:09:35.030Z,7.32
2023-01-11T11:10:35.279Z,7.34
2023-01-11T11:11:34.985Z,7.36
2023-01-11T11:12:34.978Z,7.36
2023-01-11T11:13:35.007Z,7.36
2023-01-11T11:14:34.973Z,7.37
2023-01-11T11:15:34.963Z,7.39
2023-01-11T11:16:34.957Z,7.36
2023-01-11T11:17:34.900Z,7.37
2023-01-11T11:18:34.906Z,7.37
2023-01-11T11:19:34.877Z,7.37
2023-01-11T11:20:34.986Z,7.39
2023-01-11T11:21:34.861Z,7.42
2023-01-11T11:22:34.836Z,7.44
2023-01-11T11:23:34.844Z,7.47
2023-01-11T11:24:34.959Z,7.47
2023-01-11T11:25:34.805Z,7.47
2023-01-11T11:26:34.823Z,7.44
2023-01-11T11:27:34.779Z,7.44
2023-01-11T11:28:34.774Z,7.44
2023-01-11T11:29:34.840Z,7.45
2023-01-11T11:30:34.730Z,7.45
2023-01-11T11:31:34.759Z,7.45
2023-01-11T11:32:36.641Z,7.44
2023-01-11T11:33:34.677Z,7.42
2023-01-11T11:34:34.721Z,7.41
2023-01-11T11:35:34.658Z,7.44
2023-01-11T11:36:34.637Z,7.47
2023-01-11T11:37:34.856Z,7.48
2023-01-11T11:38:34.664Z,7.48
2023-01-11T11:39:34.655Z,7.47
2023-01-11T11:40:34.620Z,7.48
2023-01-11T11:41:34.585Z,7.48
2023-01-11T11:42:34.588Z,7.48
2023-01-11T11:43:34.560Z,7.48
2023-01-11T11:44:34.564Z,7.48
2023-01-11T11:45:34.597Z,7.48
2023-01-11T11:46:34.526Z,7.47
2023-01-11T11:47:34.532Z,7.47
2023-01-11T11:48:34.517Z,7.45
2023-01-11T11:49:34.519Z,7.48
2023-01-11T11:50:44.807Z,7.50
2023-01-11T11:51:35.454Z,7.51
2023-01-11T11:52:34.430Z,7.51
2023-01-11T11:53:34.461Z,7.52
2023-01-11T11:54:34.429Z,7.51
2023-01-11T11:55:34.536Z,7.52
2023-01-11T11:56:34.624Z,7.52
2023-01-11T11:57:34.379Z,7.51
2023-01-11T11:58:34.351Z,7.54
2023-01-11T11:59:34.373Z,7.55
2023-01-11T12:00:34.335Z,7.54
2023-01-11T12:01:34.361Z,7.55
2023-01-11T12:02:34.405Z,7.57
2023-01-11T12:03:34.312Z,7.57
2023-01-11T12:04:34.312Z,7.57
2023-01-11T12:05:34.298Z,7.57
2023-01-11T12:06:34.264Z,7.60
2023-01-11T12:07:36.118Z,7.62
2023-01-11T12:08:34.223Z,7.63
2023-01-11T12:09:34.285Z,7.66
2023-01-11T12:10:34.206Z,7.66
2023-01-11T12:11:34.230Z,7.69
2023-01-11T12:12:34.226Z,7.67
2023-01-11T12:13:34.192Z,7.69
2023-01-11T12:14:34.168Z,7.69
2023-01-11T12:15:34.159Z,7.70
2023-01-11T12:16:34.485Z,7.71
2023-01-11T12:17:34.099Z,7.73
2023-01-11T12:18:34.087Z,7.74
2023-01-11T12:19:35.063Z,7.76
2023-01-11T12:20:34.073Z,7.77
2023-01-11T12:21:34.048Z,7.77
2023-01-11T12:22:34.092Z,7.79
2023-01-11T12:23:34.041Z,7.81
2023-01-11T12:24:34.029Z,7.79
2023-01-11T12:25:34.026Z,7.84
2023-01-11T12:26:33.993Z,7.84
2023-01-11T12:27:34.007Z,7.84
2023-01-11T12:28:34.002Z,7.84
2023-01-11T12:29:34.085Z,7.86
2023-01-11T12:30:34.019Z,7.88
2023-01-11T12:31:33.935Z,7.88
2023-01-11T12:32:33.897Z,7.88
2023-01-11T12:33:33.898Z,7.88
2023-01-11T12:34:33.884Z,7.88
2023-01-11T12:35:33.864Z,7.89
2023-01-11T12:36:33.860Z,7.89
2023-01-11T12:37:33.848Z,7.91
2023-01-11T12:38:33.866Z,7.89
2023-01-11T12:39:33.820Z,7.91
2023-01-11T12:40:33.852Z,7.91
2023-01-11T12:41:33.789Z,7.91
2023-01-11T12:42:33.772Z,7.89
2023-01-11T12:43:33.762Z,7.89
2023-01-11T12:44:33.744Z,7.86
2023-01-11T12:45:33.832Z,7.88
2023-01-11T12:46:33.793Z,7.88
2023-01-11T12:47:33.711Z,7.89
2023-01-11T12:48:33.705Z,7.88
2023-01-11T12:49:33.700Z,7.86
2023-01-11T12:50:33.686Z,7.88
2023-01-11T12:51:33.661Z,7.88
2023-01-11T12:52:33.643Z,7.88
2023-01-11T12:53:33.762Z,7.88
2023-01-11T12:54:33.669Z,7.86
2023-01-11T12:55:33.616Z,7.86
2023-01-11T12:56:33.593Z,7.86
2023-01-11T12:57:33.581Z,7.88
2023-01-11T12:58:33.634Z,7.89
2023-01-11T12:59:33.806Z,7.89
2023-01-11T13:00:33.523Z,7.89
2023-01-11T13:01:33.588Z,7.89
2023-01-11T13:02:33.607Z,7.91
2023-01-11T13:03:33.494Z,7.92
2023-01-11T13:04:33.498Z,7.91
2023-01-11T13:05:33.517Z,7.91
2023-01-11T13:06:33.445Z,7.92
2023-01-11T13:07:33.486Z,7.91
2023-01-11T13:08:33.480Z,7.91
2023-01-11T13:09:33.445Z,7.92
2023-01-11T13:10:33.437Z,7.92
2023-01-11T13:11:33.375Z,7.92
2023-01-11T13:12:43.414Z,7.94
2023-01-11T13:13:34.537Z,7.95
2023-01-11T13:14:33.383Z,7.94
2023-01-11T13:15:34.595Z,7.94
2023-01-11T13:16:33.387Z,7.95
2023-01-11T13:17:33.383Z,7.95
2023-01-11T13:18:33.301Z,7.95
2023-01-11T13:19:33.295Z,7.95
2023-01-11T13:20:40.408Z,7.95
2023-01-11T13:21:34.242Z,7.96
2023-01-11T13:22:33.244Z,7.96
2023-01-11T13:23:33.322Z,7.96
2023-01-11T13:24:33.243Z,7.99